CMA CGM Verlaine — DASO — position and weather

sailwx.info

Track history (hours):
 
Tides and Currents Weather Stations Pressure Air Temp Water Temp Dewpoint Dewpoint Depression Visibility Wind Speed Wind Dir Waves Ship Positions

CMA CGM Verlaine

Last reported at 2014-Jul-20 16:00 UTC. Time now 2014-Jul-24 21:40 UTC.
Position N 32°00' W 042°18'.

Length 300 m; beam 40 m; draft 14.5 m.

Type: Ship. MMSI: 211378820.

Wind from 999 at 2 knots

Barometer 1026.0 mb
Air temperature 26.1 ° C
Visibility: greater than 10.8 NM
Dewpoint 23.3 ° C
Water temperature 26.0 ° C

Date/timePositionNaut miles runAvg speedWind from/ knotsBaromVisibWave heightAir tempDewpointWater temp
2014-Jul-20 16:00N 32°00' W 042°18'45416.2 999 / 21026.010.8 26.123.326.0
2014-Jul-19 12:00N 33°36' W 033°30'28016.0 030 / 41025.010.8 0.526.018.624.0
2014-Jul-18 18:32N 34°37' W 027°60'3216.2
2014-Jul-18 16:33N 34°43' W 027°22'2116.1
2014-Jul-18 15:15N 34°48' W 026°57'1316.1
2014-Jul-18 14:27N 34°50' W 026°41'1616.6
2014-Jul-18 13:29N 34°54' W 026°22'10116.0
2014-Jul-18 07:10N 35°15' W 024°21'1015.6
2014-Jul-18 06:31N 35°17' W 024°09'5015.9
2014-Jul-18 03:24N 35°27' W 023°10'1416.4
2014-Jul-18 02:33N 35°30' W 022°53'2116.1
2014-Jul-18 01:16N 35°34' W 022°28'1616.2
2014-Jul-18 00:18N 35°37' W 022°09'14615.7
2014-Jul-17 15:00N 36°06' W 019°12'28116.1 250 / 181019.510.8 0.523.019.521.0
2014-Jul-16 21:30N 37°05' W 013°30'2316.0
2014-Jul-16 20:05N 37°10' W 013°02'915.8
2014-Jul-16 19:33N 37°12' W 012°52'1616.1
2014-Jul-16 18:33N 37°15' W 012°32'1616.5
2014-Jul-16 17:33N 37°18' W 012°12'1716.7
2014-Jul-16 16:33N 37°22' W 011°51'1716.7
2014-Jul-16 15:33N 37°25' W 011°31'1616.5
2014-Jul-16 14:34N 37°29' W 011°10'1716.4
2014-Jul-16 13:33N 37°32' W 010°50'1716.4
2014-Jul-16 12:33N 37°36' W 010°29'1616.5
2014-Jul-16 11:33N 37°39' W 010°09'1616.3
2014-Jul-16 10:33N 37°42' W 009°49'1616.2
2014-Jul-16 09:33N 37°46' W 009°29'1616.1
2014-Jul-16 08:33N 37°49' W 009°09'1515.6
2014-Jul-16 07:33N 37°54' W 008°51'2 1.7
2014-Jul-16 06:28N 37°56' W 008°51'0 0.0
2014-Jul-16 05:31N 37°56' W 008°51'0 0.0
2014-Jul-16 04:31N 37°56' W 008°51'0 0.0
2014-Jul-16 03:33N 37°56' W 008°51'0 0.0
2014-Jul-16 02:33N 37°56' W 008°51'0 0.0
2014-Jul-16 01:32N 37°56' W 008°51'0 0.0
2014-Jul-16 00:29N 37°56' W 008°51'0 0.0
2014-Jul-15 23:31N 37°56' W 008°51'0 0.0
2014-Jul-15 22:31N 37°56' W 008°51'0 0.0
2014-Jul-15 21:28N 37°56' W 008°51'0 0.0
2014-Jul-15 20:33N 37°56' W 008°51'0 0.0
2014-Jul-15 19:33N 37°56' W 008°51'0 0.0
2014-Jul-15 18:32N 37°56' W 008°51'0 0.0
2014-Jul-15 17:32N 37°56' W 008°51'0 0.0
2014-Jul-15 16:31N 37°56' W 008°51'0 0.0
2014-Jul-15 15:31N 37°56' W 008°51'0 0.1
2014-Jul-15 14:33N 37°56' W 008°51'6 6.0
2014-Jul-15 13:33N 37°50' W 008°52'1615.9
2014-Jul-15 12:33N 37°36' W 009°01'1616.0
2014-Jul-15 11:33N 37°21' W 009°09'1615.9
2014-Jul-15 10:33N 37°07' W 009°17'1514.6
2014-Jul-15 09:33N 36°52' W 009°18'1515.3
2014-Jul-15 08:33N 36°42' W 009°04'1615.8
2014-Jul-15 07:33N 36°37' W 008°45'1616.1
2014-Jul-15 06:33N 36°31' W 008°27'1716.6
2014-Jul-15 05:33N 36°25' W 008°07'1716.5
2014-Jul-15 04:33N 36°19' W 007°48'2416.5
2014-Jul-15 03:07N 36°11' W 007°21'916.4
2014-Jul-15 02:33N 36°07' W 007°10'7617.0
2014-Jul-14 22:06N 35°58' W 005°37'916.4
2014-Jul-14 21:34N 36°01' W 005°27'17717.6
2014-Jul-14 11:31N 36°39' W 001°53'3517.2
2014-Jul-14 09:31N 37°02' W 001°20'1816.9
2014-Jul-14 08:29N 37°13' W 001°04'1917.6
2014-Jul-14 07:24N 37°25' W 000°45'1517.7
2014-Jul-14 06:33N 37°36' W 000°33'1817.6
2014-Jul-14 05:33N 37°51' W 000°21'1716.8
2014-Jul-14 04:33N 38°05' W 000°09'1817.5
2014-Jul-14 03:32N 38°20' E 000°04'1817.3
2014-Jul-14 02:29N 38°35' E 000°17'5115.8
2014-Jul-13 23:18N 39°21' W 000°09'1013.2
2014-Jul-13 22:33N 39°26' W 000°19'0 0.1
2014-Jul-13 21:31N 39°26' W 000°19'0 0.0
2014-Jul-13 20:33N 39°26' W 000°19'0 0.0
2014-Jul-13 19:30N 39°26' W 000°19'0 0.0
2014-Jul-13 18:29N 39°26' W 000°19'0 0.0
2014-Jul-13 17:32N 39°26' W 000°19'0 0.0
2014-Jul-13 16:28N 39°26' W 000°19'0 0.0
2014-Jul-13 15:31N 39°26' W 000°19'0 0.0
2014-Jul-13 14:09N 39°26' W 000°19'0 0.0
2014-Jul-13 13:33N 39°26' W 000°19'0 0.0
2014-Jul-13 12:33N 39°26' W 000°19'0 0.0
2014-Jul-13 11:32N 39°26' W 000°19'0 0.0
2014-Jul-13 10:32N 39°26' W 000°19'0 0.3
2014-Jul-13 09:33N 39°26' W 000°20'0 0.0
2014-Jul-13 08:33N 39°26' W 000°20'0 0.0
2014-Jul-13 07:32N 39°26' W 000°20'0 0.0
2014-Jul-13 06:29N 39°26' W 000°20'0 0.0
2014-Jul-13 05:31N 39°26' W 000°20'0 0.0
2014-Jul-13 04:25N 39°26' W 000°20'0 0.0
2014-Jul-13 03:31N 39°26' W 000°20'0 0.0
2014-Jul-13 01:27N 39°26' W 000°20'0 0.0
2014-Jul-13 00:29N 39°26' W 000°20'0 0.0
2014-Jul-12 23:32N 39°26' W 000°20'0 0.0
2014-Jul-12 22:31N 39°26' W 000°20'0 0.0
2014-Jul-12 21:28N 39°26' W 000°20'0 0.0
2014-Jul-12 20:31N 39°26' W 000°20'0 0.0
2014-Jul-12 19:33N 39°26' W 000°20'0 0.0
2014-Jul-12 18:33N 39°26' W 000°20'0 0.0
2014-Jul-12 17:32N 39°26' W 000°20'0 0.0
2014-Jul-12 16:32N 39°26' W 000°20'0 0.0
2014-Jul-12 15:31N 39°26' W 000°20'0 0.0
2014-Jul-12 14:31N 39°26' W 000°20'0 0.0
2014-Jul-12 13:34N 39°26' W 000°20'0 0.0
2014-Jul-12 12:33N 39°26' W 000°20'0 0.0
2014-Jul-12 11:33N 39°26' W 000°20'0 0.0
2014-Jul-12 10:32N 39°26' W 000°20'0 0.2
2014-Jul-12 09:34N 39°26' W 000°20'6 6.1
2014-Jul-12 08:33N 39°25' W 000°12'6114.8
2014-Jul-12 04:26N 39°52' E 000°60'5 6.3
2014-Jul-12 03:33N 39°57' E 001°04'1514.7
2014-Jul-12 02:33N 40°09' E 001°15'1515.0
2014-Jul-12 01:33N 40°21' E 001°26'1514.8
2014-Jul-12 00:33N 40°33' E 001°37'1514.6
2014-Jul-11 23:33N 40°45' E 001°48'37 5.2
2014-Jul-11 16:28N 41°18' E 002°09'0 0.0
2014-Jul-11 15:22N 41°18' E 002°09'0 0.0
2014-Jul-11 14:09N 41°18' E 002°09'0 0.0
2014-Jul-11 13:30N 41°18' E 002°09'0 0.0
2014-Jul-11 12:32N 41°18' E 002°09'1 1.4
2014-Jul-11 11:33N 41°18' E 002°11'8 7.7
2014-Jul-11 10:33N 41°16' E 002°20'0 0.4
2014-Jul-11 09:32N 41°15' E 002°20'7 7.2
2014-Jul-11 08:33N 41°15' E 002°30'2419.7
2014-Jul-11 07:21N 41°24' E 002°59'6 7.8
2014-Jul-11 06:31N 41°27' E 003°07'1515.6
2014-Jul-11 05:33N 41°34' E 003°25'1616.3
2014-Jul-11 04:33N 41°41' E 003°44'1616.0
2014-Jul-11 03:33N 41°48' E 004°03'1615.9
2014-Jul-11 02:33N 41°55' E 004°22'1616.0
2014-Jul-11 01:33N 42°02' E 004°42'1615.4
2014-Jul-11 00:31N 42°10' E 005°01'1615.8
2014-Jul-10 23:30N 42°17' E 005°20'3115.4
2014-Jul-10 21:31N 42°31' E 005°57'1515.7
2014-Jul-10 20:33N 42°38' E 006°15'1515.2
2014-Jul-10 19:33N 42°45' E 006°34'1615.5
2014-Jul-10 18:30N 42°52' E 006°53'1515.4
2014-Jul-10 17:33N 42°59' E 007°11'1515.1
2014-Jul-10 16:33N 43°06' E 007°30'  
Track history (hours):
 
Tides and Currents Weather Stations Pressure Air Temp Water Temp Dewpoint Dewpoint Depression Visibility Wind Speed Wind Dir Waves Ship Positions

CMA CGM Verlaine

Last reported at 2014-Jul-20 16:00 UTC. Time now 2014-Jul-24 21:40 UTC.
Position N 32°00' W 042°18'.

Length 300 m; beam 40 m; draft 14.5 m.

Type: Ship. MMSI: 211378820.

Wind from 999 at 2 knots

Barometer 1026.0 mb
Air temperature 26.1 ° C
Visibility: greater than 10.8 NM
Dewpoint 23.3 ° C
Water temperature 26.0 ° C

Date/timePositionNaut miles runAvg speedWind from/ knotsBaromVisibWave heightAir tempDewpointWater temp
2014-Jul-20 16:00N 32°00' W 042°18'45416.2 999 / 21026.010.8 26.123.326.0
2014-Jul-19 12:00N 33°36' W 033°30'28016.0 030 / 41025.010.8 0.526.018.624.0
2014-Jul-18 18:32N 34°37' W 027°60'3216.2
2014-Jul-18 16:33N 34°43' W 027°22'2116.1
2014-Jul-18 15:15N 34°48' W 026°57'1316.1
2014-Jul-18 14:27N 34°50' W 026°41'1616.6
2014-Jul-18 13:29N 34°54' W 026°22'10116.0
2014-Jul-18 07:10N 35°15' W 024°21'1015.6
2014-Jul-18 06:31N 35°17' W 024°09'5015.9
2014-Jul-18 03:24N 35°27' W 023°10'1416.4
2014-Jul-18 02:33N 35°30' W 022°53'2116.1
2014-Jul-18 01:16N 35°34' W 022°28'1616.2
2014-Jul-18 00:18N 35°37' W 022°09'14615.7
2014-Jul-17 15:00N 36°06' W 019°12'28116.1 250 / 181019.510.8 0.523.019.521.0
2014-Jul-16 21:30N 37°05' W 013°30'2316.0
2014-Jul-16 20:05N 37°10' W 013°02'915.8
2014-Jul-16 19:33N 37°12' W 012°52'1616.1
2014-Jul-16 18:33N 37°15' W 012°32'1616.5
2014-Jul-16 17:33N 37°18' W 012°12'1716.7
2014-Jul-16 16:33N 37°22' W 011°51'1716.7
2014-Jul-16 15:33N 37°25' W 011°31'1616.5
2014-Jul-16 14:34N 37°29' W 011°10'1716.4
2014-Jul-16 13:33N 37°32' W 010°50'1716.4
2014-Jul-16 12:33N 37°36' W 010°29'1616.5
2014-Jul-16 11:33N 37°39' W 010°09'1616.3
2014-Jul-16 10:33N 37°42' W 009°49'1616.2
2014-Jul-16 09:33N 37°46' W 009°29'1616.1
2014-Jul-16 08:33N 37°49' W 009°09'1515.6
2014-Jul-16 07:33N 37°54' W 008°51'2 1.7
2014-Jul-16 06:28N 37°56' W 008°51'0 0.0
2014-Jul-16 05:31N 37°56' W 008°51'0 0.0
2014-Jul-16 04:31N 37°56' W 008°51'0 0.0
2014-Jul-16 03:33N 37°56' W 008°51'0 0.0
2014-Jul-16 02:33N 37°56' W 008°51'0 0.0
2014-Jul-16 01:32N 37°56' W 008°51'0 0.0
2014-Jul-16 00:29N 37°56' W 008°51'0 0.0
2014-Jul-15 23:31N 37°56' W 008°51'0 0.0
2014-Jul-15 22:31N 37°56' W 008°51'0 0.0
2014-Jul-15 21:28N 37°56' W 008°51'0 0.0
2014-Jul-15 20:33N 37°56' W 008°51'0 0.0
2014-Jul-15 19:33N 37°56' W 008°51'0 0.0
2014-Jul-15 18:32N 37°56' W 008°51'0 0.0
2014-Jul-15 17:32N 37°56' W 008°51'0 0.0
2014-Jul-15 16:31N 37°56' W 008°51'0 0.0
2014-Jul-15 15:31N 37°56' W 008°51'0 0.1
2014-Jul-15 14:33N 37°56' W 008°51'6 6.0
2014-Jul-15 13:33N 37°50' W 008°52'1615.9
2014-Jul-15 12:33N 37°36' W 009°01'1616.0
2014-Jul-15 11:33N 37°21' W 009°09'1615.9
2014-Jul-15 10:33N 37°07' W 009°17'1514.6
2014-Jul-15 09:33N 36°52' W 009°18'1515.3
2014-Jul-15 08:33N 36°42' W 009°04'1615.8
2014-Jul-15 07:33N 36°37' W 008°45'1616.1
2014-Jul-15 06:33N 36°31' W 008°27'1716.6
2014-Jul-15 05:33N 36°25' W 008°07'1716.5
2014-Jul-15 04:33N 36°19' W 007°48'2416.5
2014-Jul-15 03:07N 36°11' W 007°21'916.4
2014-Jul-15 02:33N 36°07' W 007°10'7617.0
2014-Jul-14 22:06N 35°58' W 005°37'916.4
2014-Jul-14 21:34N 36°01' W 005°27'17717.6
2014-Jul-14 11:31N 36°39' W 001°53'3517.2
2014-Jul-14 09:31N 37°02' W 001°20'1816.9
2014-Jul-14 08:29N 37°13' W 001°04'1917.6
2014-Jul-14 07:24N 37°25' W 000°45'1517.7
2014-Jul-14 06:33N 37°36' W 000°33'1817.6
2014-Jul-14 05:33N 37°51' W 000°21'1716.8
2014-Jul-14 04:33N 38°05' W 000°09'1817.5
2014-Jul-14 03:32N 38°20' E 000°04'1817.3
2014-Jul-14 02:29N 38°35' E 000°17'5115.8
2014-Jul-13 23:18N 39°21' W 000°09'1013.2
2014-Jul-13 22:33N 39°26' W 000°19'0 0.1
2014-Jul-13 21:31N 39°26' W 000°19'0 0.0
2014-Jul-13 20:33N 39°26' W 000°19'0 0.0
2014-Jul-13 19:30N 39°26' W 000°19'0 0.0
2014-Jul-13 18:29N 39°26' W 000°19'0 0.0
2014-Jul-13 17:32N 39°26' W 000°19'0 0.0
2014-Jul-13 16:28N 39°26' W 000°19'0 0.0
2014-Jul-13 15:31N 39°26' W 000°19'0 0.0
2014-Jul-13 14:09N 39°26' W 000°19'0 0.0
2014-Jul-13 13:33N 39°26' W 000°19'0 0.0
2014-Jul-13 12:33N 39°26' W 000°19'0 0.0
2014-Jul-13 11:32N 39°26' W 000°19'0 0.0
2014-Jul-13 10:32N 39°26' W 000°19'0 0.3
2014-Jul-13 09:33N 39°26' W 000°20'0 0.0
2014-Jul-13 08:33N 39°26' W 000°20'0 0.0
2014-Jul-13 07:32N 39°26' W 000°20'0 0.0
2014-Jul-13 06:29N 39°26' W 000°20'0 0.0
2014-Jul-13 05:31N 39°26' W 000°20'0 0.0
2014-Jul-13 04:25N 39°26' W 000°20'0 0.0
2014-Jul-13 03:31N 39°26' W 000°20'0 0.0
2014-Jul-13 01:27N 39°26' W 000°20'0 0.0
2014-Jul-13 00:29N 39°26' W 000°20'0 0.0
2014-Jul-12 23:32N 39°26' W 000°20'0 0.0
2014-Jul-12 22:31N 39°26' W 000°20'0 0.0
2014-Jul-12 21:28N 39°26' W 000°20'0 0.0
2014-Jul-12 20:31N 39°26' W 000°20'0 0.0
2014-Jul-12 19:33N 39°26' W 000°20'0 0.0
2014-Jul-12 18:33N 39°26' W 000°20'0 0.0
2014-Jul-12 17:32N 39°26' W 000°20'0 0.0
2014-Jul-12 16:32N 39°26' W 000°20'0 0.0
2014-Jul-12 15:31N 39°26' W 000°20'0 0.0
2014-Jul-12 14:31N 39°26' W 000°20'0 0.0
2014-Jul-12 13:34N 39°26' W 000°20'0 0.0
2014-Jul-12 12:33N 39°26' W 000°20'0 0.0
2014-Jul-12 11:33N 39°26' W 000°20'0 0.0
2014-Jul-12 10:32N 39°26' W 000°20'0 0.2
2014-Jul-12 09:34N 39°26' W 000°20'6 6.1
2014-Jul-12 08:33N 39°25' W 000°12'6114.8
2014-Jul-12 04:26N 39°52' E 000°60'5 6.3
2014-Jul-12 03:33N 39°57' E 001°04'1514.7
2014-Jul-12 02:33N 40°09' E 001°15'1515.0
2014-Jul-12 01:33N 40°21' E 001°26'1514.8
2014-Jul-12 00:33N 40°33' E 001°37'1514.6
2014-Jul-11 23:33N 40°45' E 001°48'37 5.2
2014-Jul-11 16:28N 41°18' E 002°09'0 0.0
2014-Jul-11 15:22N 41°18' E 002°09'0 0.0
2014-Jul-11 14:09N 41°18' E 002°09'0 0.0
2014-Jul-11 13:30N 41°18' E 002°09'0 0.0
2014-Jul-11 12:32N 41°18' E 002°09'1 1.4
2014-Jul-11 11:33N 41°18' E 002°11'8 7.7
2014-Jul-11 10:33N 41°16' E 002°20'0 0.4
2014-Jul-11 09:32N 41°15' E 002°20'7 7.2
2014-Jul-11 08:33N 41°15' E 002°30'2419.7
2014-Jul-11 07:21N 41°24' E 002°59'6 7.8
2014-Jul-11 06:31N 41°27' E 003°07'1515.6
2014-Jul-11 05:33N 41°34' E 003°25'1616.3
2014-Jul-11 04:33N 41°41' E 003°44'1616.0
2014-Jul-11 03:33N 41°48' E 004°03'1615.9
2014-Jul-11 02:33N 41°55' E 004°22'1616.0
2014-Jul-11 01:33N 42°02' E 004°42'1615.4
2014-Jul-11 00:31N 42°10' E 005°01'1615.8
2014-Jul-10 23:30N 42°17' E 005°20'3115.4
2014-Jul-10 21:31N 42°31' E 005°57'1515.7
2014-Jul-10 20:33N 42°38' E 006°15'1515.2
2014-Jul-10 19:33N 42°45' E 006°34'1615.5
2014-Jul-10 18:30N 42°52' E 006°53'1515.4
2014-Jul-10 17:33N 42°59' E 007°11'1515.1
2014-Jul-10 16:33N 43°06' E 007°30'  

Dump ship's entire track history